createdAt,value
2022-12-26T00:02:33.243Z,9.02
2022-12-26T00:05:11.790Z,9.00
2022-12-26T00:07:52.948Z,9.00
2022-12-26T00:10:32.737Z,8.97
2022-12-26T00:13:38.444Z,8.97
2022-12-26T00:16:24.377Z,8.94
2022-12-26T00:19:04.701Z,8.92
2022-12-26T00:21:48.158Z,8.93
2022-12-26T00:24:28.570Z,8.90
2022-12-26T00:27:08.406Z,8.89
2022-12-26T00:29:50.498Z,8.87
2022-12-26T00:32:33.470Z,8.85
2022-12-26T00:35:14.243Z,8.84
2022-12-26T00:37:54.323Z,8.83
2022-12-26T00:40:35.384Z,8.85
2022-12-26T00:43:13.343Z,8.79
2022-12-26T00:45:52.559Z,8.81
2022-12-26T00:48:33.233Z,8.79
2022-12-26T00:51:13.175Z,8.76
2022-12-26T00:53:54.593Z,8.76
2022-12-26T00:56:33.956Z,8.73
2022-12-26T00:59:14.202Z,8.69
2022-12-26T01:01:52.140Z,8.71
2022-12-26T01:04:32.109Z,8.70
2022-12-26T01:07:11.877Z,8.72
2022-12-26T01:09:51.693Z,8.70
2022-12-26T01:12:33.538Z,8.69
2022-12-26T01:15:16.534Z,8.67
2022-12-26T01:18:16.804Z,8.67
2022-12-26T01:21:01.841Z,8.65
2022-12-26T01:23:42.908Z,8.65
2022-12-26T01:26:22.500Z,8.65
2022-12-26T01:29:04.349Z,8.66
2022-12-26T01:31:45.364Z,8.65
2022-12-26T01:34:25.198Z,8.67
2022-12-26T01:37:05.058Z,8.62
2022-12-26T01:39:44.796Z,8.64
2022-12-26T01:42:26.894Z,8.62
2022-12-26T01:45:06.964Z,8.62
2022-12-26T01:47:50.104Z,8.61
2022-12-26T01:50:32.426Z,8.60
2022-12-26T01:53:15.370Z,8.54
2022-12-26T01:55:57.648Z,8.52
2022-12-26T01:58:38.904Z,8.52
2022-12-26T02:01:17.388Z,8.50
2022-12-26T02:04:15.055Z,8.48
2022-12-26T02:06:54.910Z,8.46
2022-12-26T02:09:34.637Z,8.47
2022-12-26T02:12:35.770Z,8.48
2022-12-26T02:15:15.015Z,8.48
2022-12-26T02:17:52.964Z,8.48
2022-12-26T02:20:39.623Z,8.45
2022-12-26T02:23:27.741Z,8.47
2022-12-26T02:26:31.232Z,8.46
2022-12-26T02:29:16.593Z,8.45
2022-12-26T02:31:57.071Z,8.42
2022-12-26T02:34:38.646Z,8.41
2022-12-26T02:37:23.908Z,8.42
2022-12-26T02:40:24.280Z,8.41
2022-12-26T02:43:06.991Z,8.39
2022-12-26T02:46:06.913Z,8.35
2022-12-26T02:48:48.506Z,8.37
2022-12-26T02:51:51.510Z,8.35
2022-12-26T02:54:49.488Z,8.34
2022-12-26T02:57:46.132Z,8.31
2022-12-26T03:00:46.880Z,8.28
2022-12-26T03:03:45.977Z,8.28
2022-12-26T03:06:44.928Z,8.25
2022-12-26T03:09:44.307Z,8.24
2022-12-26T03:12:45.361Z,8.23
2022-12-26T03:15:23.850Z,8.21
2022-12-26T03:18:04.000Z,8.21
2022-12-26T03:20:45.010Z,8.22
2022-12-26T03:23:24.851Z,8.22
2022-12-26T03:26:22.908Z,8.24
2022-12-26T03:29:18.992Z,8.23
2022-12-26T03:31:59.529Z,8.24
2022-12-26T03:34:41.296Z,8.22
2022-12-26T03:37:49.750Z,8.25
2022-12-26T03:40:51.344Z,8.26
2022-12-26T03:43:55.438Z,8.26
2022-12-26T03:47:09.023Z,8.24
2022-12-26T03:50:07.314Z,8.26
2022-12-26T03:53:06.947Z,8.26
2022-12-26T03:56:07.438Z,8.30
2022-12-26T03:59:03.911Z,8.30
2022-12-26T04:02:02.566Z,8.33
2022-12-26T04:05:02.079Z,8.35
2022-12-26T04:08:01.019Z,8.37
2022-12-26T04:10:58.786Z,8.40
2022-12-26T04:14:00.314Z,8.42
2022-12-26T04:17:01.672Z,8.42
2022-12-26T04:19:45.409Z,8.40
2022-12-26T04:22:48.765Z,8.42
2022-12-26T04:25:50.300Z,8.42
2022-12-26T04:28:46.829Z,8.44
2022-12-26T04:31:47.481Z,8.46
2022-12-26T04:34:45.807Z,8.46
2022-12-26T04:37:44.269Z,8.46
2022-12-26T04:40:41.435Z,8.45
2022-12-26T04:43:46.830Z,8.43
2022-12-26T04:46:31.653Z,8.46
2022-12-26T04:49:34.101Z,8.45
2022-12-26T04:52:14.513Z,8.45
2022-12-26T04:54:52.965Z,8.45
2022-12-26T04:57:35.081Z,8.44
2022-12-26T05:00:18.368Z,8.42
2022-12-26T05:03:19.545Z,8.41
2022-12-26T05:06:19.391Z,8.42
2022-12-26T05:09:17.997Z,8.38
2022-12-26T05:11:57.690Z,8.42
2022-12-26T05:14:38.246Z,8.41
2022-12-26T05:17:36.588Z,8.44
2022-12-26T05:20:34.120Z,8.47
2022-12-26T05:23:33.933Z,8.48
2022-12-26T05:26:32.595Z,8.49
2022-12-26T05:29:13.594Z,8.51
2022-12-26T05:31:56.812Z,8.53
2022-12-26T05:34:38.010Z,8.47
2022-12-26T05:37:19.151Z,8.47
2022-12-26T05:39:57.097Z,8.43
2022-12-26T05:42:37.315Z,8.42
2022-12-26T05:45:18.587Z,8.41
2022-12-26T05:48:00.203Z,8.40
2022-12-26T05:50:41.805Z,8.39
2022-12-26T05:53:22.793Z,8.33
2022-12-26T05:56:05.465Z,8.29
2022-12-26T05:58:43.818Z,8.29
2022-12-26T06:01:24.205Z,8.26
2022-12-26T06:04:05.443Z,8.23
2022-12-26T06:06:48.659Z,8.16
2022-12-26T06:09:31.994Z,8.12
2022-12-26T06:12:12.644Z,8.10
2022-12-26T06:14:52.656Z,8.03
2022-12-26T06:17:35.918Z,7.96
2022-12-26T06:20:15.249Z,7.93
2022-12-26T06:22:57.216Z,7.93
2022-12-26T06:25:40.078Z,7.88
2022-12-26T06:28:21.128Z,7.86
2022-12-26T06:31:04.198Z,7.86
2022-12-26T06:33:44.024Z,7.85
2022-12-26T06:36:26.205Z,7.86
2022-12-26T06:39:06.762Z,7.84
2022-12-26T06:41:48.650Z,7.84
2022-12-26T06:44:27.695Z,7.84
2022-12-26T06:47:07.841Z,7.86
2022-12-26T06:49:47.579Z,7.83
2022-12-26T06:52:27.386Z,7.80
2022-12-26T06:55:07.655Z,7.80
2022-12-26T06:57:48.595Z,7.78
2022-12-26T07:00:30.184Z,7.77
2022-12-26T07:03:13.466Z,7.75
2022-12-26T07:05:54.438Z,7.71
2022-12-26T07:08:34.614Z,7.67
2022-12-26T07:11:18.045Z,7.65
2022-12-26T07:13:58.859Z,7.64
2022-12-26T07:16:40.778Z,7.61
2022-12-26T07:19:23.502Z,7.57
2022-12-26T07:22:06.571Z,7.54
2022-12-26T07:24:47.575Z,7.53
2022-12-26T07:27:25.675Z,7.55
2022-12-26T07:30:03.604Z,7.50
2022-12-26T07:32:45.715Z,7.49
2022-12-26T07:35:28.707Z,7.49
2022-12-26T07:38:09.702Z,7.51
2022-12-26T07:40:49.713Z,7.54
2022-12-26T07:43:32.512Z,7.54
2022-12-26T07:46:12.475Z,7.58
2022-12-26T07:48:55.725Z,7.61
2022-12-26T07:51:34.952Z,7.65
2022-12-26T07:54:15.314Z,7.68
2022-12-26T07:57:15.000Z,7.69
2022-12-26T07:59:58.969Z,7.71
2022-12-26T08:02:40.163Z,7.70
2022-12-26T08:05:20.875Z,7.73
2022-12-26T08:08:01.232Z,7.74
2022-12-26T08:10:39.097Z,7.73
2022-12-26T08:13:21.169Z,7.73
2022-12-26T08:16:04.879Z,7.69
2022-12-26T08:18:45.304Z,7.70
2022-12-26T08:21:25.016Z,7.72
2022-12-26T08:24:04.833Z,7.69
2022-12-26T08:26:44.639Z,7.72
2022-12-26T08:29:24.497Z,7.74
2022-12-26T08:32:06.409Z,7.76
2022-12-26T08:34:49.306Z,7.78
2022-12-26T08:37:28.445Z,7.82
2022-12-26T08:40:09.295Z,7.83
2022-12-26T08:43:03.423Z,7.86
2022-12-26T08:45:57.449Z,7.91
2022-12-26T08:48:36.809Z,7.92
2022-12-26T08:51:19.332Z,7.96
2022-12-26T08:54:01.498Z,7.97
2022-12-26T08:56:42.529Z,8.00
2022-12-26T08:59:20.650Z,8.02
2022-12-26T09:02:02.691Z,8.04
2022-12-26T09:04:43.555Z,8.03
2022-12-26T09:07:24.829Z,8.06
2022-12-26T09:10:06.130Z,8.07
2022-12-26T09:12:45.895Z,8.08
2022-12-26T09:15:27.993Z,8.12
2022-12-26T09:18:10.814Z,8.13
2022-12-26T09:20:52.038Z,8.10
2022-12-26T09:23:30.102Z,8.18
2022-12-26T09:26:10.974Z,8.19
2022-12-26T09:28:49.545Z,8.22
2022-12-26T09:31:32.360Z,8.27
2022-12-26T09:34:10.766Z,8.29
2022-12-26T09:36:50.847Z,8.32
2022-12-26T09:39:32.766Z,8.32
2022-12-26T09:42:15.700Z,8.36
2022-12-26T09:44:58.115Z,8.35
2022-12-26T09:47:36.958Z,8.39
2022-12-26T09:50:28.576Z,8.41
2022-12-26T09:53:09.382Z,8.45
2022-12-26T09:55:51.558Z,8.49
2022-12-26T09:58:30.610Z,8.51
2022-12-26T10:01:12.447Z,8.57
2022-12-26T10:03:51.384Z,8.62
2022-12-26T10:06:31.568Z,8.66
2022-12-26T10:09:16.513Z,8.70
2022-12-26T10:12:02.682Z,8.78
2022-12-26T10:14:42.571Z,8.81
2022-12-26T10:17:24.446Z,8.87
2022-12-26T10:20:14.384Z,8.87
2022-12-26T10:23:00.276Z,8.92
2022-12-26T10:25:41.478Z,8.97
2022-12-26T10:28:24.249Z,8.99
2022-12-26T10:31:05.551Z,9.00
2022-12-26T10:33:47.466Z,9.07
2022-12-26T10:36:30.853Z,9.12
2022-12-26T10:39:14.753Z,9.11
2022-12-26T10:41:54.100Z,9.16
2022-12-26T10:44:34.905Z,9.16
2022-12-26T10:47:17.250Z,9.16
2022-12-26T10:49:59.785Z,9.17
2022-12-26T10:53:00.147Z,9.15
2022-12-26T10:55:41.592Z,9.18
2022-12-26T10:58:23.892Z,9.20
2022-12-26T11:01:19.822Z,9.15
2022-12-26T11:03:58.775Z,9.16
2022-12-26T11:06:40.623Z,9.15
2022-12-26T11:09:28.515Z,9.13
2022-12-26T11:12:17.195Z,9.13
2022-12-26T11:15:01.602Z,9.16
2022-12-26T11:17:41.376Z,9.21
2022-12-26T11:20:29.587Z,9.26
2022-12-26T11:23:19.697Z,9.28
2022-12-26T11:26:00.553Z,9.30
2022-12-26T11:28:43.429Z,9.34
2022-12-26T11:31:26.837Z,9.39
2022-12-26T11:34:09.295Z,9.44
2022-12-26T11:36:49.165Z,9.46
2022-12-26T11:39:31.569Z,9.52
2022-12-26T11:42:12.361Z,9.56
2022-12-26T11:44:54.950Z,9.59
2022-12-26T11:47:36.022Z,9.62
2022-12-26T11:50:21.122Z,9.63
2022-12-26T11:53:06.527Z,9.63
2022-12-26T11:55:44.731Z,9.62
2022-12-26T11:58:24.878Z,9.62
2022-12-26T12:01:08.361Z,9.58
2022-12-26T12:03:50.293Z,9.58
2022-12-26T12:06:33.648Z,9.57
2022-12-26T12:09:15.176Z,9.56
2022-12-26T12:11:56.321Z,9.57
2022-12-26T12:14:43.409Z,9.59
2022-12-26T12:17:26.303Z,9.62
2022-12-26T12:20:20.795Z,9.60
2022-12-26T12:23:05.333Z,9.64
2022-12-26T12:25:49.050Z,9.62
2022-12-26T12:28:38.194Z,9.66
2022-12-26T12:31:20.066Z,9.69
2022-12-26T12:34:04.243Z,9.64
2022-12-26T12:36:49.485Z,9.69
2022-12-26T12:39:32.400Z,9.69
2022-12-26T12:42:18.746Z,9.69
2022-12-26T12:45:05.618Z,9.67
2022-12-26T12:47:46.488Z,9.68
2022-12-26T12:50:30.277Z,9.67
2022-12-26T12:53:13.740Z,9.70
2022-12-26T12:55:58.223Z,9.71
2022-12-26T12:58:41.471Z,9.73
2022-12-26T13:01:22.172Z,9.77
2022-12-26T13:04:05.448Z,9.75
2022-12-26T13:06:48.492Z,9.75
2022-12-26T13:09:29.233Z,9.72
2022-12-26T13:12:10.797Z,9.73
2022-12-26T13:14:51.961Z,9.76
2022-12-26T13:17:33.178Z,9.80
2022-12-26T13:20:16.244Z,9.79
2022-12-26T13:23:15.620Z,9.77
2022-12-26T13:26:04.528Z,9.72
2022-12-26T13:28:49.844Z,9.75
2022-12-26T13:31:28.689Z,9.65
2022-12-26T13:34:10.253Z,9.60
2022-12-26T13:36:50.249Z,9.57
2022-12-26T13:39:40.530Z,9.34
2022-12-26T13:42:48.581Z,9.24
2022-12-26T13:45:49.707Z,9.11
2022-12-26T13:48:54.021Z,9.02
2022-12-26T13:51:45.529Z,8.95
2022-12-26T13:54:25.297Z,8.84
2022-12-26T13:57:19.768Z,8.85
2022-12-26T14:00:05.622Z,8.76
2022-12-26T14:06:05.214Z,8.69
2022-12-26T14:08:54.797Z,8.58
2022-12-26T14:11:40.019Z,8.47
2022-12-26T14:14:22.859Z,8.41
2022-12-26T14:17:07.442Z,8.31
2022-12-26T14:19:50.613Z,8.22
2022-12-26T14:22:30.978Z,8.24
2022-12-26T14:25:17.504Z,8.17
2022-12-26T14:28:01.562Z,8.15
2022-12-26T14:30:41.550Z,8.12
2022-12-26T14:33:25.675Z,8.06
2022-12-26T14:36:09.058Z,7.99
2022-12-26T14:38:55.609Z,7.88
2022-12-26T14:42:16.113Z,7.80
2022-12-26T14:44:57.178Z,7.65
2022-12-26T14:47:39.570Z,7.64
2022-12-26T14:50:40.182Z,7.54
2022-12-26T14:53:38.627Z,7.45
2022-12-26T14:56:37.531Z,7.34
2022-12-26T14:59:27.636Z,7.27
2022-12-26T15:02:11.615Z,7.23
2022-12-26T15:04:53.986Z,7.12
2022-12-26T15:07:53.834Z,7.01
2022-12-26T15:10:51.295Z,7.02
2022-12-26T15:13:35.030Z,6.98
2022-12-26T15:16:20.748Z,6.87
2022-12-26T15:19:12.126Z,6.84
2022-12-26T15:21:58.416Z,6.79
2022-12-26T15:25:18.240Z,6.75
2022-12-26T15:28:04.443Z,6.65
2022-12-26T15:30:51.495Z,6.65
2022-12-26T15:33:32.441Z,6.51
2022-12-26T15:36:17.123Z,6.49
2022-12-26T15:38:58.914Z,6.44
2022-12-26T15:41:40.353Z,6.40
2022-12-26T15:44:23.392Z,6.30
2022-12-26T15:47:07.266Z,6.28
2022-12-26T15:49:52.161Z,6.20
2022-12-26T15:52:37.566Z,6.16
2022-12-26T15:55:18.831Z,6.04
2022-12-26T15:58:01.494Z,5.95
2022-12-26T16:00:48.416Z,5.91
2022-12-26T16:03:31.935Z,5.90
2022-12-26T16:06:25.005Z,5.84
2022-12-26T16:09:07.301Z,5.71
2022-12-26T16:11:51.067Z,5.75
2022-12-26T16:14:32.501Z,5.68
2022-12-26T16:17:17.906Z,5.63
2022-12-26T16:19:58.758Z,5.61
2022-12-26T16:22:46.554Z,5.61
2022-12-26T16:25:26.472Z,5.53
2022-12-26T16:28:06.184Z,5.51
2022-12-26T16:30:46.016Z,5.52
2022-12-26T16:33:25.749Z,5.46
2022-12-26T16:36:03.668Z,5.42
2022-12-26T16:38:44.180Z,5.42
2022-12-26T16:41:24.106Z,5.41
2022-12-26T16:44:30.067Z,5.34
2022-12-26T16:47:16.360Z,5.28
2022-12-26T16:49:56.801Z,5.27
2022-12-26T16:52:45.933Z,5.20
2022-12-26T16:55:36.637Z,5.14
2022-12-26T16:58:24.588Z,5.01
2022-12-26T17:01:08.062Z,4.96
2022-12-26T17:03:50.867Z,4.91
2022-12-26T17:06:31.034Z,4.91
2022-12-26T17:09:12.841Z,4.81
2022-12-26T17:11:57.720Z,4.73
2022-12-26T17:14:41.417Z,4.66
2022-12-26T17:17:31.801Z,4.57
2022-12-26T17:20:33.661Z,4.49
2022-12-26T17:23:34.950Z,4.39
2022-12-26T17:26:21.292Z,4.37
2022-12-26T17:29:01.092Z,4.31
2022-12-26T17:31:41.563Z,4.27
2022-12-26T17:34:25.001Z,4.18
2022-12-26T17:37:20.782Z,4.06
2022-12-26T17:40:03.723Z,4.00
2022-12-26T17:42:44.773Z,3.91
2022-12-26T17:45:26.770Z,3.88
2022-12-26T17:48:07.474Z,3.79
2022-12-26T17:50:49.210Z,3.73
2022-12-26T17:53:32.175Z,3.64
2022-12-26T17:56:15.490Z,3.62
2022-12-26T17:58:57.766Z,3.59
2022-12-26T18:01:38.891Z,3.58
2022-12-26T18:04:20.190Z,3.55
2022-12-26T18:06:59.966Z,3.51
2022-12-26T18:09:39.811Z,3.50
2022-12-26T18:12:17.718Z,3.42
2022-12-26T18:15:08.333Z,3.37
2022-12-26T18:17:49.697Z,3.34
2022-12-26T18:20:30.627Z,3.30
2022-12-26T18:23:13.826Z,3.26
2022-12-26T18:25:54.677Z,3.20
2022-12-26T18:28:34.673Z,3.17
2022-12-26T18:31:15.550Z,3.13
2022-12-26T18:33:55.956Z,3.06
2022-12-26T18:36:40.988Z,2.94
2022-12-26T18:39:21.897Z,2.89
2022-12-26T18:42:01.668Z,2.76
2022-12-26T18:44:42.190Z,2.76
2022-12-26T18:47:23.222Z,2.70
2022-12-26T18:50:06.603Z,2.66
2022-12-26T18:52:53.138Z,2.61
2022-12-26T18:55:35.523Z,2.58
2022-12-26T18:58:16.541Z,2.53
2022-12-26T19:00:56.417Z,2.49
2022-12-26T19:03:36.161Z,2.46
2022-12-26T19:06:17.184Z,2.40
2022-12-26T19:08:59.397Z,2.33
2022-12-26T19:11:42.838Z,2.26
2022-12-26T19:14:25.397Z,2.24
2022-12-26T19:17:06.485Z,2.15
2022-12-26T19:19:46.207Z,2.12
2022-12-26T19:22:27.761Z,2.08
2022-12-26T19:25:09.704Z,2.04
2022-12-26T19:27:50.722Z,2.03
2022-12-26T19:30:38.261Z,1.98
2022-12-26T19:33:17.763Z,2.02
2022-12-26T19:35:57.810Z,2.00
2022-12-26T19:38:37.824Z,2.01
2022-12-26T19:41:19.053Z,1.97
2022-12-26T19:43:59.249Z,1.94
2022-12-26T19:46:40.264Z,1.88
2022-12-26T19:49:22.041Z,1.85
2022-12-26T19:52:03.062Z,1.79
2022-12-26T19:54:42.986Z,1.75
2022-12-26T19:57:23.302Z,1.72
2022-12-26T20:00:04.535Z,1.67
2022-12-26T20:02:52.114Z,1.67
2022-12-26T20:05:33.282Z,1.63
2022-12-26T20:08:15.104Z,1.58
2022-12-26T20:11:00.715Z,1.52
2022-12-26T20:13:40.959Z,1.50
2022-12-26T20:17:03.198Z,1.47
2022-12-26T20:19:25.119Z,1.44
2022-12-26T20:22:06.107Z,1.44
2022-12-26T20:24:49.343Z,1.43
2022-12-26T20:27:32.983Z,1.43
2022-12-26T20:30:13.560Z,1.42
2022-12-26T20:32:54.790Z,1.43
2022-12-26T20:35:36.120Z,1.41
2022-12-26T20:38:17.791Z,1.40
2022-12-26T20:40:58.915Z,1.38
2022-12-26T20:43:38.790Z,1.34
2022-12-26T20:46:18.949Z,1.32
2022-12-26T20:48:57.949Z,1.33
2022-12-26T20:51:40.454Z,1.31
2022-12-26T20:54:21.191Z,1.34
2022-12-26T20:57:01.202Z,1.31
2022-12-26T20:59:42.248Z,1.32
2022-12-26T21:02:22.147Z,1.32
2022-12-26T21:05:06.230Z,1.33
2022-12-26T21:07:47.444Z,1.33
2022-12-26T21:10:27.860Z,1.41
2022-12-26T21:13:08.185Z,1.42
2022-12-26T21:15:49.075Z,1.40
2022-12-26T21:18:29.160Z,1.40
2022-12-26T21:21:12.363Z,1.45
2022-12-26T21:23:56.990Z,1.46
2022-12-26T21:26:41.751Z,1.44
2022-12-26T21:29:23.303Z,1.44
2022-12-26T21:32:06.191Z,1.42
2022-12-26T21:34:46.945Z,1.49
2022-12-26T21:37:46.774Z,1.45
2022-12-26T21:40:27.559Z,1.46
2022-12-26T21:43:08.747Z,1.49
2022-12-26T21:45:48.694Z,1.46
2022-12-26T21:48:28.490Z,1.50
2022-12-26T21:51:09.736Z,1.55
2022-12-26T21:53:49.735Z,1.57
2022-12-26T21:56:32.986Z,1.59
2022-12-26T21:59:32.006Z,1.62
2022-12-26T22:02:34.909Z,1.66
2022-12-26T22:05:15.841Z,1.73
2022-12-26T22:07:57.388Z,1.76
2022-12-26T22:10:57.939Z,1.79
2022-12-26T22:13:42.594Z,1.81
2022-12-26T22:16:23.277Z,1.83
2022-12-26T22:19:03.105Z,1.83
2022-12-26T22:21:42.848Z,1.85
2022-12-26T22:24:22.773Z,1.88
2022-12-26T22:27:02.786Z,1.93
2022-12-26T22:29:43.897Z,1.98
2022-12-26T22:32:25.701Z,2.07
2022-12-26T22:35:07.775Z,2.12
2022-12-26T22:37:49.689Z,2.13
2022-12-26T22:40:29.516Z,2.14
2022-12-26T22:43:10.913Z,2.11
2022-12-26T22:45:50.735Z,2.11
2022-12-26T22:48:30.607Z,2.13
2022-12-26T22:51:10.679Z,2.13
2022-12-26T22:53:51.774Z,2.13
2022-12-26T22:56:31.874Z,2.11
2022-12-26T22:59:33.879Z,2.12
2022-12-26T23:02:15.296Z,2.12
2022-12-26T23:04:59.286Z,2.10
2022-12-26T23:07:40.094Z,2.11
2022-12-26T23:10:22.447Z,2.12
2022-12-26T23:13:02.776Z,2.10
2022-12-26T23:15:45.923Z,2.09
2022-12-26T23:18:46.703Z,2.07
2022-12-26T23:21:42.090Z,2.07
2022-12-26T23:24:23.987Z,2.08
2022-12-26T23:27:19.678Z,2.07
2022-12-26T23:30:18.130Z,2.10
2022-12-26T23:32:58.153Z,2.09
2022-12-26T23:35:40.033Z,2.10
2022-12-26T23:38:20.644Z,2.11
2022-12-26T23:41:00.544Z,2.12
2022-12-26T23:43:42.248Z,2.12
2022-12-26T23:46:23.376Z,2.11
2022-12-26T23:49:03.286Z,2.09
2022-12-26T23:51:44.525Z,2.10
2022-12-26T23:54:24.643Z,2.09
2022-12-26T23:57:05.916Z,2.12
2022-12-26T23:59:47.281Z,2.13
